Weather observations for the past three days for
Franklin / J B Rose
Metric (Imperial)
Date Time (edt) Wind (kph) Vis. (km) Weather Sky Cond. Temperature (ºC) Relative Humidity Wind Chill (°C) Heat Index (°C) Pressure Precipitation (cm)
Air Dwpt 6 hour altimeter (cm) sea level (mb) 1 hr 3 hr 6 hr
Max. Min.
04 13:55 W 6 16.09 Partly Cloudy SCT050 SCT065 SCT075 0 0 0% 76.02 0.0
04 13:35 Calm 11.27 Mostly Cloudy BKN050 BKN065 BKN075 0 0 0% 76.02 0.0
04 13:15 NW 6 16.09 Partly Cloudy SCT100 SCT120 0 0 0% 76.02 0.0
04 12:55 SW 11 16.09 Fair CLR 0 0 0% 76.05 0.0
04 12:35 Calm 16.09 Fair CLR 0 0 0% 76.07 0.0
04 12:15 SW 7 16.09 Fair CLR 0 0 0% 76.1 0.0
04 11:35 W 7 16.09 Fair CLR 0 0 0% 76.1 0.0
04 11:15 W 11 16.09 Fair CLR 0 0 0% 76.1 0.0
04 10:55 W 7 16.09 Fair CLR 0 0 0% 76.1 0.0
04 10:35 SW 7 16.09 Fair CLR 0 0 0% 76.1 0.0
04 10:15 SW 11 16.09 Fair CLR 0 0 0% 76.1 0.0
04 09:55 SW 11 16.09 Fair CLR 0 0 0% 76.1 0.0
04 09:35 W 11 16.09 Fair CLR 0 0 0% 76.12 0.0
04 09:15 W 9 16.09 Fair CLR 0 0 0% 76.12 0.0
04 08:55 Calm 16.09 Fair CLR 0 0 0% 76.12 0.0
04 08:35 SW 9 16.09 Fair CLR 0 0 0% 76.15 0.0
04 08:15 SW 9 16.09 Fair CLR 0 0 0% 76.15 0.0
04 07:55 SW 7 16.09 Fair CLR 0 0 0% 76.15 0.0
04 07:35 SW 7 16.09 Fair CLR 0 0 0% 76.15 0.0
04 07:15 Calm 16.09 Fair CLR 0 0 0% 76.15 0.0
04 06:55 Calm 16.09 Fair CLR 0 0 0% 76.15 0.0
04 06:35 Calm 16.09 Fair CLR 0 0 0% 76.15 0.0
04 06:15 Calm 16.09 Fair CLR 0 0 0% 76.15 0.0
04 05:55 Calm 16.09 Fair CLR 0 0 0% 76.15 0.0
04 05:15 S 7 16.09 Fair CLR 0 0 0% 76.12 0.0
04 04:55 Calm 16.09 Partly Cloudy SCT085 0 0 0% 76.12 0.0
04 04:35 SW 6 16.09 Mostly Cloudy BKN085 0 0 0% 76.1 0.0
04 04:15 Calm 16.09 Fair CLR 0 0 0% 76.1 0.0
04 03:55 SW 7 16.09 Fair CLR 0 0 0% 76.07 0.0
04 03:35 SW 11 16.09 Fair CLR 0 0 0% 76.07 0.0
04 03:15 SW 7 16.09 Fair CLR 0 0 0% 76.07 0.0
04 02:55 SW 6 16.09 Partly Cloudy SCT075 0 0 0% 76.07 0.0
04 02:35 SW 7 16.09 Partly Cloudy SCT075 0 0 0% 76.07 0.0
04 02:15 SW 7 16.09 Fair CLR 0 0 0% 76.1 0.0
04 01:55 SW 11 16.09 Fair CLR 0 0 0% 76.12 0.0
04 01:35 SW 9 16.09 Fair CLR 0 0 0% 76.15 0.0
04 01:15 SW 7 16.09 Fair CLR 0 0 0% 76.17 0.0
04 00:55 SW 7 16.09 Fair CLR 0 0 0% 76.17 0.0
04 00:35 SW 9 16.09 Fair CLR 0 0 0% 76.17 0.0
04 00:15 SW 9 16.09 Fair CLR 0 0 0% 76.17 0.0
03 23:55 S 9 16.09 Fair CLR 0 0 0% 76.17 0.0
03 23:35 S 7 16.09 Fair CLR 0 0 0% 76.15 0.0
03 23:15 S 9 16.09 Fair CLR 0 0 0% 76.15 0.0
03 22:55 S 7 16.09 Fair CLR 0 0 0% 76.15 0.0
03 22:35 S 9 16.09 Fair CLR 0 0 0% 76.15 0.0
03 22:15 S 7 16.09 Fair CLR 0 0 0% 76.17 0.0
03 21:55 S 7 16.09 Fair CLR 0 0 0% 76.17 0.0
03 21:35 S 7 16.09 Fair CLR 0 0 0% 76.17 0.0
03 21:15 S 9 16.09 Partly Cloudy SCT075 0 0 0% 76.17 0.0
03 20:55 Calm 16.09 Partly Cloudy SCT075 0 0 0% 76.17 0.0
03 20:35 Calm 16.09 Partly Cloudy SCT070 0 0 0% 76.15 0.0
03 20:15 Calm 16.09 Partly Cloudy SCT070 0 0 0% 76.12 0.0
03 19:35 S 6 16.09 Fair CLR 31.1 22.7 61% 35 76.07 0.0
03 19:15 S 7 16.09 Fair CLR 32.1 22.8 58% 37 76.07 0.0
03 18:55 S 6 16.09 Fair CLR 33.1 22.4 53% 38 76.05 0.0
03 18:35 S 6 16.09 Fair CLR 33.6 21.9 50% 38 76.05 0.0
03 18:15 S 9 16.09 Fair CLR 34.8 21.9 47% 39 76.05 0.0
03 17:55 S 7 16.09 Fair CLR 0 0 0% 76.07 0.0
03 17:35 SW 6 16.09 Fair CLR 36 20.5 40% 39 76.07 0.0
03 17:15 SW 7 16.09 Fair CLR 36 20.9 41% 40 76.07 0.0
03 16:55 SW 7 16.09 Fair CLR 36.2 21.2 42% 40 76.07 0.0
03 16:35 W 6 16.09 Partly Cloudy SCT055 36.1 20.9 41% 40 76.07 0.0
03 16:15 S 9 16.09 Partly Cloudy SCT055 36.6 21.5 41% 41 76.1 0.0
03 15:55 W 6 16.09 Partly Cloudy SCT060 36.6 21.4 41% 41 76.12 0.0
03 15:35 SW 7 16.09 Mostly Cloudy BKN060 BKN070 36.7 21.4 41% 41 76.15 0.0
03 15:15 W 11 16.09 Partly Cloudy SCT050 36.5 21.6 42% 41 76.15 0.0
03 14:55 Calm 16.09 Partly Cloudy SCT050 36.3 21.8 43% 41 76.17 0.0
03 14:35 W 6 16.09 Partly Cloudy SCT050 35.9 21.8 44% 40 76.2 0.0
03 14:15 SW 6 16.09 Fair CLR 35.3 21.6 45% 39 76.2 0.0
03 13:55 W 11 16.09 Fair CLR 35.4 21.9 35.4 24.2 45% 40 76.23 0.0
03 13:35 W 11 16.09 Fair CLR 34.7 21.7 47% 39 76.23 0.0
03 13:15 Calm 16.09 Fair CLR 34.5 22.3 49% 39 76.25 0.0
03 12:55 W 6 16.09 Fair CLR 34.4 22.3 49% 39 76.25 0.0
03 12:35 W 6 16.09 Fair CLR 33.9 22.3 51% 38 76.28 0.0
03 12:15 W 6 16.09 Fair CLR 33.2 22.1 52% 37 76.3 0.0
03 11:55 Calm 16.09 Fair CLR 32.8 22.4 54% 37 76.3 0.0
03 11:35 Calm 16.09 Fair CLR 32.2 22.9 58% 37 76.33 0.0
03 11:15 SW 6 16.09 Fair CLR 32 23.2 60% 37 76.33 0.0
03 10:55 Calm 16.09 Fair CLR 31 23.1 63% 36 76.33 0.0
03 10:35 Calm 16.09 Fair CLR 30.6 23 64% 35 76.33 0.0
03 10:15 Calm 16.09 Fair CLR 29.8 22.9 67% 34 76.3 0.0
03 09:55 Calm 16.09 Fair CLR 29.1 23 70% 33 76.3 0.0
03 09:35 Calm 16.09 Fair CLR 28.2 23 73% 32 76.33 0.0
03 09:15 Calm 16.09 Fair CLR 25.7 22.7 84% 27 76.33 0.0
03 08:55 Calm 16.09 Partly Cloudy SCT006 24.9 23.8 94% 25 76.33 0.0
03 08:35 Calm 16.09 Mostly Cloudy BKN004 24.5 23.5 94% 24 76.33 0.0
03 08:15 Calm 8.05 Overcast OVC002 24.5 23.5 94% 24 76.33 0.0
03 07:35 Calm 0.24 Overcast OVC002 24 23.1 95% 23 76.33 0.0
03 07:15 Calm 0.40 Overcast OVC002 24 23.1 95% 23 76.3 0.0
03 06:55 Calm 0.40 Overcast OVC002 24 23.1 95% 23 76.3 0.0
03 06:35 Calm 0.40 Overcast OVC002 24 23.1 95% 23 76.28 0.0
03 06:15 Calm 0.40 Overcast OVC002 24 23.2 95% 23 76.28 0.0
03 05:55 Calm 0.80 Overcast OVC002 24.1 23.2 95% 23 76.28 0.0
03 05:35 Calm 1.21 Overcast OVC002 24.1 23.3 95% 23 76.25 0.0
03 05:15 Calm 1.61 Overcast OVC002 24.1 23.4 96% 23 76.25 0.0
03 04:55 Calm 0.80 Overcast OVC002 24.1 23.3 95% 23 76.25 0.0
03 04:35 Calm 0.40 Overcast OVC002 24 23.2 95% 23 76.25 0.0
03 04:15 Calm 2.82 Overcast OVC002 24 23.2 95% 23 76.25 0.0
03 03:55 Calm 8.05 Overcast OVC002 23.6 22.7 95% 76.25 0.0
03 03:35 Calm 8.05 Mostly Cloudy BKN002 23.5 22.6 95% 76.25 0.0
03 03:15 Calm 8.05 Partly Cloudy SCT003 23.4 22.3 94% 76.23 0.0
03 02:55 Calm 8.05 Partly Cloudy SCT003 23.5 22.4 94% 76.25 0.0
03 02:35 Calm 11.27 Fair CLR 23.6 22.6 94% 76.25 0.0
03 02:15 Calm 11.27 Fair CLR 23.5 22.4 94% 76.28 0.0
03 01:55 Calm 16.09 Fair CLR 23.5 22.1 27.5 23.3 92% 76.28 0.0
03 01:35 Calm 16.09 Fair CLR 23.3 22 92% 76.3 0.0
03 01:15 Calm 16.09 Fair CLR 23.7 22.2 91% 76.3 0.0
03 00:55 Calm 16.09 Fair CLR 23.7 22.3 92% 76.3 0.0
03 00:35 Calm 16.09 Fair CLR 24.2 22.8 92% 24 76.3 0.0
03 00:15 Calm 16.09 Fair CLR 24.1 22.6 91% 24 76.3 0.0
02 23:55 Calm 16.09 Fair CLR 24.5 22.7 90% 25 76.28 0.0
02 23:35 Calm 16.09 Fair CLR 24.5 22.7 90% 25 76.28 0.0
02 23:15 Calm 16.09 Fair CLR 24.9 23 89% 25 76.28 0.0
02 22:55 Calm 16.09 Fair CLR 25 23 89% 26 76.28 0.0
02 22:35 E 7 16.09 Fair CLR 24.9 22.6 87% 26 76.28 0.0
02 22:15 E 6 16.09 Fair CLR 25.1 22.7 87% 26 76.28 0.0
02 21:55 Calm 16.09 Fair CLR 25.6 22.7 84% 27 76.3 0.0
02 21:35 Calm 16.09 Fair CLR 25.7 23.2 86% 27 76.33 0.0
02 21:15 Calm 16.09 Fair CLR 26.3 23 82% 28 76.33 0.0
02 20:55 Calm 16.09 Fair CLR 26.8 23 80% 29 76.33 0.0
02 20:35 Calm 16.09 Fair CLR 27.1 23 78% 30 76.28 0.0
02 20:15 Calm 16.09 Fair CLR 27.2 23 78% 30 76.28 0.0
02 19:55 Calm 16.09 Fair CLR 27.3 23 35.8 27.3 77% 30 76.28 0.0
02 19:35 Calm 16.09 Fair CLR 27.8 22.9 75% 31 76.25 0.0
02 19:15 Calm 16.09 Fair CLR 28.2 22.7 72% 31 76.28 0.0
02 18:55 NE 9 16.09 Fair CLR 28.3 22.4 70% 31 76.35 0.0
02 18:35 E 15 16.09 Fair CLR 29 21.7 65% 32 76.33 0.0
02 18:15 NE 15 16.09 Fair CLR 29.9 22.2 63% 33 76.33 0.0
02 17:55 NE 17 16.09 Fair CLR 31 22.4 60% 35 76.33 0.0
02 17:35 E 19 16.09 Fair CLR 32.8 22.9 56% 38 76.33 0.0
02 17:15 NE 19 G 28 16.09 Fair CLR 33.5 22.6 53% 38 76.28 0.0
02 16:55 NE 17 G 26 16.09 Fair CLR 33.9 22.4 51% 39 76.28 0.0
02 16:35 NE 17 16.09 Partly Cloudy SCT065 34.2 22.3 50% 39 76.28 0.0
02 16:15 NE 17 G 28 16.09 Partly Cloudy SCT065 SCT075 34 22 50% 38 76.25 0.0
02 15:55 E 9 16.09 Partly Cloudy SCT060 SCT075 34.4 21.1 46% 38 76.25 0.0
02 15:35 E 11 16.09 Partly Cloudy SCT050 35.4 21 43% 39 76.28 0.0
02 15:15 E 13 16.09 Partly Cloudy SCT050 SCT070 SCT080 34.7 21 45% 38 76.28 0.0
02 14:55 NE 13 16.09 Partly Cloudy SCT060 SCT075 SCT080 34.9 20.7 43% 38 76.3 0.0
02 14:35 Calm 16.09 Mostly Cloudy BKN049 BKN075 34.3 20.5 44% 37 76.3 0.0
02 14:15 Calm 16.09 Partly Cloudy SCT049 35.4 20.8 42% 39 76.3 0.0
02 13:55 E 7 16.09 Partly Cloudy SCT049 34.4 20.7 35.2 25 45% 37 76.3 0.0
02 13:35 Calm 16.09 Partly Cloudy SCT049 34.9 20.7 43% 38 76.3 0.0
02 13:15 NE 13 16.09 Partly Cloudy SCT045 35.2 20.8 43% 39 76.3 0.0
02 12:55 N 9 16.09 Fair CLR 34.5 21 45% 38 76.3 0.0
02 12:35 NE 13 16.09 Fair CLR 34.2 21.1 46% 38 76.33 0.0
02 12:15 E 9 16.09 Fair CLR 34 21.2 47% 37 76.33 0.0
02 11:55 NE 9 16.09 Fair CLR 33.7 21.1 48% 37 76.35 0.0
02 11:35 N 11 16.09 Fair CLR 33.6 20.9 47% 37 76.35 0.0
02 11:15 N 11 16.09 Fair CLR 33.1 20.6 48% 36 76.35 0.0
02 10:55 N 11 16.09 Fair CLR 32.6 20.9 50% 36 76.35 0.0
02 10:35 NE 11 16.09 Fair CLR 32 20.8 52% 35 76.35 0.0
02 10:15 N 6 16.09 Fair CLR 31.5 21.3 55% 35 76.33 0.0
02 09:35 N 7 16.09 Fair CLR 29.8 21.2 60% 32 76.3 0.0
02 09:15 N 6 16.09 Fair CLR 28.7 21.3 64% 31 76.3 0.0
02 08:55 Calm 16.09 Fair CLR 27.9 21.7 69% 30 76.33 0.0
02 08:35 Calm 16.09 Fair CLR 26.6 21.8 75% 29 76.3 0.0
02 08:15 Calm 16.09 Fair CLR 25.8 22.6 83% 27 76.33 0.0
02 07:55 Calm 16.09 Fair CLR 24.9 22.6 25.2 22.6 87% 26 76.3 0.0
02 07:35 Calm 16.09 Fair CLR 24 22.6 92% 23 76.3 0.0
02 07:15 Calm 11.27 Fair CLR 23.2 22.2 94% 76.28 0.0
02 06:55 Calm 11.27 Fair CLR 22.8 21.8 94% 76.28 0.0
02 06:35 Calm 11.27 Fair CLR 22.9 21.9 94% 76.28 0.0
02 06:15 Calm 16.09 Fair CLR 23 21.9 94% 76.28 0.0
02 05:55 Calm 16.09 Fair CLR 23.5 22.4 94% 76.28 0.0
02 05:35 Calm 16.09 Fair CLR 23.4 21.9 91% 76.28 0.0
02 05:15 Calm 16.09 Fair CLR 23.9 22.3 91% 23 76.25 0.0
02 04:55 Calm 16.09 Fair CLR 24 22.3 90% 24 76.25 0.0
02 04:35 Calm 16.09 Fair CLR 24.2 22.3 89% 24 76.25 0.0
02 04:15 Calm 16.09 Fair CLR 24.3 22.4 89% 24 76.25 0.0
02 03:55 Calm 16.09 Fair CLR 24.5 22.3 88% 25 76.25 0.0
02 03:35 Calm 16.09 Fair CLR 24.5 22.4 88% 25 76.25 0.0
02 03:15 Calm 16.09 Fair CLR 24.9 22.5 87% 26 76.25 0.0
02 02:55 Calm 16.09 Fair CLR 24.8 22.5 87% 25 76.25 0.0
02 02:35 Calm 16.09 Fair CLR 24.8 22.5 87% 25 76.25 0.0
02 02:15 S 6 16.09 Fair CLR 25 22.5 86% 26 76.28 0.0
02 01:55 Calm 16.09 Fair CLR 25.2 22.5 29.3 24.8 85% 26 76.28 0.0
02 01:35 Calm 16.09 Fair CLR 25 22.4 86% 26 76.28 0.0
02 01:15 Calm 16.09 Fair CLR 25.2 22.5 85% 26 76.28 0.0
02 00:55 S 6 16.09 Fair CLR 25.5 22.5 84% 27 76.28 0.0
02 00:35 Calm 16.09 Fair CLR 25.8 22.6 83% 27 76.28 0.0
02 00:15 S 6 16.09 Fair CLR 26.1 22.6 81% 28 76.25 0.0
01 23:55 S 6 16.09 Fair CLR 26.1 22.6 81% 28 76.23 0.0
01 23:35 S 6 16.09 Fair CLR 25.7 22.5 83% 27 76.23 0.0
01 23:15 S 6 16.09 Fair CLR 25.9 22.4 81% 28 76.23 0.0
01 22:55 Calm 16.09 Fair CLR 26.5 22.4 78% 29 76.23 0.0
01 22:35 SE 6 16.09 Fair CLR 26.5 22.5 79% 29 76.23 0.0
01 22:15 Calm 16.09 Fair CLR 25.7 22.5 83% 27 76.23 0.0
01 21:55 Calm 16.09 Fair CLR 26.2 22.5 80% 28 76.23 0.0
01 21:35 Calm 16.09 Fair CLR 27.3 22.3 74% 30 76.17 0.0
01 21:15 Calm 16.09 Fair CLR 26.7 22.6 78% 29 76.17 0.0
01 20:55 Calm 16.09 Fair CLR 28.2 22.7 72% 31 76.17 0.0
01 20:35 Calm 16.09 Fair CLR 28.1 22.9 73% 31 76.15 0.0
01 20:15 Calm 16.09 Fair CLR 28.6 22.7 70% 32 76.15 0.0
01 19:55 Calm 16.09 Partly Cloudy SCT065 29.3 22.5 35.9 29.3 67% 33 76.15 0.0
01 19:35 Calm 16.09 Partly Cloudy SCT065 30.3 22.4 63% 34 76.17 0.0
01 19:15 E 9 16.09 Mostly Cloudy BKN065 BKN075 31.1 22.1 59% 35 76.17 0.0
01 18:55 S 6 16.09 Mostly Cloudy BKN070 32.4 21.7 53% 36 76.17 0.0
01 18:35 S 7 16.09 Mostly Cloudy BKN070 BKN080 33.2 21.1 49% 36 76.17 0.0
01 18:15 S 7 16.09 Overcast OVC070 34.1 20.7 45% 37 76.17 0.0
01 17:55 Calm 16.09 Mostly Cloudy BKN070 34.1 20.4 45% 37 76.17 0.0
01 17:35 Calm 16.09 Partly Cloudy SCT070 SCT090 SCT110 34.4 20.1 43% 37 76.17 0.0
01 17:15 SW 6 16.09 Mostly Cloudy SCT065 SCT075 BKN095 34.2 19.6 42% 36 76.17 0.0
01 16:55 SW 6 16.09 Mostly Cloudy BKN065 BKN075 34.8 19.5 41% 37 76.17 0.0
01 16:35 S 6 16.09 Partly Cloudy SCT075 34.8 18.9 39% 37 76.17 0.0
01 16:15 SW 7 16.09 Mostly Cloudy BKN060 BKN075 35.3 19.7 40% 38 76.17 0.0
01 15:55 Calm 16.09 Mostly Cloudy BKN065 35.2 19.3 39% 37 76.17 0.0
01 15:35 W 7 16.09 Partly Cloudy SCT065 35.5 19 38% 37 76.2 0.0
01 15:15 Calm 16.09 Mostly Cloudy BKN065 35.5 18.9 38% 37 76.2 0.0
01 14:55 Calm 16.09 Mostly Cloudy SCT055 BKN065 35.3 18.8 38% 37 76.23 0.0
01 14:35 Calm 16.09 Partly Cloudy SCT075 33.9 18.7 41% 35 76.25 0.0
01 14:15 SW 7 16.09 Partly Cloudy SCT075 34.5 19.9 42% 37 76.25 0.0
Date Time (edt) Wind (kph) Vis. (km) Weather Sky Cond. Air Dwpt Max. Min. Relative Humidity Wind Chill (°C) Heat Index (°C) altimeter (cm) sea level (mb) 1 hr 3 hr 6 hr
6 hour
Temperature (ºC) Pressure Precipitation (cm)